默认 日期 大小 文件数 浏览量 最新下载 xml
page磁力链接相关资源由用户搜索指令自动获取,结果来源于网络,本站不存储任何资料,亦不承担任何责任,请于24小时内删除,搜索到7400个磁力,显示前4000条数据,用时4ms。
    {"Wealth v1.2.2 – Multi-Purpose Landing Page WordPress Theme.zip": 1531300}
创建时间: 2018-11-05 11:25:20 大小:1.46 MB 文件数量:1 热度:14 最近下载:2025-01-22 16:46:02
    {"53443962_stacked_with_kylie_page_027.jpg": 4450971, "53443965_stacked_with_kylie_page_048.jpg": 4701648, "53443971_stacked_with_kylie_page_066.jpg": 4192326, "[NFBusty] Kylie Page - Stacked (06.10.2017) rq.mp4": 261375915}
创建时间: 2018-11-05 12:56:34 大小:261.99 MB 文件数量:4 热度:22 最近下载:2025-02-23 06:18:02
    {"RARBG.txt": 30, "neighboraffair.17.04.21.kylie.page.mp4": 2834091280, "neighboraffair.17.04.21.kylie.page.nfo": 5193}
创建时间: 2018-11-05 13:22:46 大小:2.64 GB 文件数量:3 热度:79 最近下载:2025-07-13 15:35:02
    {"0001.jpg": 191444, "0002.jpg": 164973, "0003.jpg": 194446, "0004.jpg": 158391, "0005.jpg": 184080, "0006.jpg": 157912, "0007.jpg": 174345, "0008.jpg": 133671, "0009.jpg": 131011, "0010.jpg": 166544, "0011.jpg": 173924, "0012.jpg": 189206, "0013.jpg": ...
创建时间: 2018-11-05 13:57:53 大小:108.66 MB 文件数量:647 热度:23 最近下载:2025-09-05 11:28:01
    ... Clapton and Friends- Jimmy Page Joe Cocker and Jeff Beck ... 1321, "[4] Prelude - Jimmy Page.flac": 13821484, "[1] Blue Wind ... 5] Starway To Heaven - Jimmy Page.flac": 61832460, "Eric Clapton Jimmy ... 6] Layla - Eric Clapton Jimmy Page Joe Cocker Jeff Beck -.flac ...
创建时间: 2018-11-05 15:58:15 大小:529.18 MB 文件数量:28 热度:15 最近下载:2025-08-18 21:42:02
    {"a-pdf-page-size-split-2.5.exe": 1582751, "Torrent downloaded from Limetorrents.com.txt": 25}
创建时间: 2018-11-05 19:36:33 大小:1.51 MB 文件数量:2 热度:14 最近下载:2025-07-16 18:53:02
    {"free audiobook version_.txt": 427, "The One-Page Financial Plan_ A Simple Way to Be Smart About Your Money by Carl Richards.azw": 6059204}
创建时间: 2018-11-05 20:18:06 大小:5.78 MB 文件数量:2 热度:20 最近下载:2025-09-19 08:15:06
    {"js_composer.zip": 5294394, "How To Install.txt": 540}
创建时间: 2018-11-05 23:34:14 大小:5.05 MB 文件数量:2 热度:12 最近下载:2025-03-18 22:45:02
    {"cumalots-sexkyliepage.mp4": 1417652723}
创建时间: 2018-11-05 23:38:41 大小:1.32 GB 文件数量:1 热度:26 最近下载:2025-02-19 00:37:02
    {"Passion-HD - Kylie Page (Pampered & Seduced) 09.17.16.mp4": 530981849}
创建时间: 2018-11-05 23:43:00 大小:506.38 MB 文件数量:1 热度:37 最近下载:2025-06-29 15:03:02
    ... , "09.Sidewalks.flac": 27779105, "08.Page Avenue.flac": 28542025, "11.Razorblades ...
创建时间: 2018-11-06 00:07:31 大小:311.73 MB 文件数量:13 热度:12 最近下载:2024-12-28 05:57:02
    {"RARBG.txt": 30, "BigMouthfuls.17.07.05.Parker.Page.XXX.SD.MP4-KLEENEX.mp4": 200692216}
创建时间: 2018-11-06 00:51:47 大小:191.4 MB 文件数量:2 热度:10 最近下载:2025-02-02 11:39:01
    {"btas.18.09.19.kylie.page.the.geeks.a.freak[N1C].mp4": 1386903244}
创建时间: 2018-11-06 01:33:48 大小:1.29 GB 文件数量:1 热度:79 最近下载:2025-08-01 20:32:12
    {"poster.jpg": 65640, "screens.jpg": 135297, "RARBG.com.txt": 33, "BigNaturals.Lucy.Page.Lusty.Lucy.mp4": 357765250}
创建时间: 2018-11-06 01:50:27 大小:341.38 MB 文件数量:4 热度:14 最近下载:2025-05-08 18:43:02
    {"RARBG.txt": 30, "bignaturals.18.09.16.kylie.page.curious.kylie.part.2.mp4": 2736551153, "bignaturals.18.09.16.kylie.page.curious.kylie.part.2.nfo": 5208}
创建时间: 2018-11-06 02:37:16 大小:2.55 GB 文件数量:3 热度:100 最近下载:2025-07-03 23:25:02
    {"Downloaded from NulledForums.org.txt": 57, "Templatera 1.1.12 - Template Manager for WPBakery Page Builder.zip": 31067}
创建时间: 2018-11-06 04:23:58 大小:30.39 KB 文件数量:2 热度:7 最近下载:2023-04-09 10:10:05
    ... Make Love.flac": 39340775, "Jimmy Page - Outrider.log": 10360, "03 - Writes ...
创建时间: 2018-11-06 08:43:24 大小:270.22 MB 文件数量:20 热度:12 最近下载:2025-01-06 17:57:08
    ... .mp4": 12021341, "Creating your master page elements.mp4": 12223295, "Importing text ...
创建时间: 2018-11-06 09:11:27 大小:356.21 MB 文件数量:53 热度:8 最近下载:2024-12-07 18:35:03
    {"RARBG.COM.txt": 34, "Holed.16.09.27.Gia.Page.Hot.Real.Estate.XXX.SD.MP4-RARBG.mp4": 292898745, "Holed.16.09.27.Gia.Page.Hot.Real.Estate.XXX.SD.MP4-RARBG.nfo": 3728}
创建时间: 2018-11-06 10:51:40 大小:279.33 MB 文件数量:3 热度:32 最近下载:2025-07-30 23:16:06
    ... "No introduction_box_front.jpg": 2032673, "Jimmy Page - No Introductions Necessary.cue": 2871 ... Introductions Necessary.log": 2454, "Jimmy Page - No Introductions Necessary.flac": ... 379135436, "Jimmy Page - No Introductions Necessary.flac.cue ...
创建时间: 2018-11-06 13:42:45 大小:392.93 MB 文件数量:24 热度:7 最近下载:2023-04-09 14:50:04